logo
Games tagged LEGO
# Game Release date
Price
Score rank
(Userscore / Metascore)
Owners
Players
Playtime (Median)
Developer(s)
Publisher(s)
1 Make Way Dec 4, 2023 $14.99N/A (N/A/83%)20,000 .. 50,00014.29%00:01 (00:00)Ice BEAMSecret Mode
2 LEGO Batman 2: DC Super Heroes Jun 22, 2012 $19.99N/A (N/A/81%)200,000 .. 500,0000%00:00 (00:00)TT GamesWarner Bros. Interactive Entertainment
3 LEGO City Undercover Apr 4, 2017 $19.99N/A (N/A/80%)500,000 .. 1,000,0005%02:20 (01:33)Traveller's TalesTT Games
4 LEGO The Lord of the Rings Nov 27, 2012 $19.99N/A (N/A/80%)1,000,000 .. 2,000,0000.33%01:02 (00:20)Traveller's TalesWarner Bros. Interactive Entertainment
5 LEGO Harry Potter: Years 5-7 Jan 5, 2012 $19.99N/A (N/A/80%)200,000 .. 500,0000%00:00 (00:00)Traveller's TalesWarner Bros. Interactive Entertainment
6 LEGO Batman: The Videogame Sep 29, 2008 $19.99N/A (N/A/80%)500,000 .. 1,000,0000%00:00 (00:00)Traveller's TalesWarner Bros. Interactive Entertainment
7 LEGO Builder's Journey Jun 22, 2021 $19.99N/A (N/A/79%)200,000 .. 500,0000%00:00 (00:00)Light Brick StudioLEGO® Games
8 LEGO Harry Potter: Years 1-4 Jun 25, 2010 $19.99N/A (N/A/79%)1,000,000 .. 2,000,0000%00:00 (00:00)TT GamesWarner Bros. Interactive Entertainment
9 LEGO Star Wars: The Skywalker Saga Apr 5, 2022 $49.99N/A (N/A/78%)1,000,000 .. 2,000,0002.08%05:54 (05:53)TT GamesWarner Bros. Games, Warner Bros. Interactive Entertainment
10 LEGO Marvel Super Heroes Oct 22, 2013 $19.99N/A (N/A/78%)1,000,000 .. 2,000,0001.57%02:06 (01:23)Traveller's TalesWarner Bros. Interactive Entertainment
11 LEGO Indiana Jones: The Original Adventures Jun 3, 2008 $19.99N/A (N/A/78%)200,000 .. 500,0000%00:00 (00:00)Traveller's TalesLucasArts, Lucasfilm, Disney
12 LEGO Star Wars - The Complete Saga Nov 12, 2009 $19.99N/A (N/A/77%)1,000,000 .. 2,000,0000.73%00:16 (00:05)Traveller's TalesLucasArts, Lucasfilm, Disney
13 LEGO DC Super-Villains Oct 16, 2018 $39.99N/A (N/A/76%)200,000 .. 500,0000%00:00 (00:00)TT Games, Feral Interactive (Mac)Warner Bros. Interactive Entertainment, Feral Interactive (Mac)
14 LEGO Star Wars III - The Clone Wars Mar 22, 2011 $19.99N/A (N/A/76%)500,000 .. 1,000,0001.79%00:01 (00:00)Traveller's TalesLucasArts, Lucasfilm, Disney
15 LEGO Bricktales Oct 12, 2022 $29.99N/A (N/A/75%)50,000 .. 100,0000%00:00 (00:00)ClockStoneThunderful Publishing
16 LEGO Jurassic World Jun 11, 2015 $19.99N/A (N/A/72%)500,000 .. 1,000,0000%00:00 (00:00)TT Games LtdWarner Bros. Interactive Entertainment
17 LEGO Indiana Jones 2: The Adventure Continues Feb 18, 2010 $19.99N/A (N/A/66%)100,000 .. 200,0000%00:00 (00:00)Traveller's TalesLucasArts, Lucasfilm, Disney
18 Bulk Dominoes VR: Kinetic Rush Nov 24, 2020 FreeN/A (N/A)0 .. 20,0000%00:00 (00:00)GuessworkVRBulk Dominoes
19 Brick Building Jul 27, 2020 FreeN/A (N/A)100,000 .. 200,0000%00:00 (00:00)VR LabsVR Labs
20 Gamecraft May 10, 2019 N/AN/A (N/A)50,000 .. 100,0000%00:00 (00:00)FreejamFreejam
21 King Rabbit - Puzzle Jan 25, 2019 FreeN/A (N/A)50,000 .. 100,0000%00:00 (00:00)RareSlothRareSloth
22 Diorama Builder Jun 21, 2024 $4.99N/A (N/A)20,000 .. 50,0000%00:00 (00:00)Virtual Arts StudioVirtual Arts Studio
23 Move My Moc Jun 3, 2024 $9.99N/A (N/A)0 .. 20,0000%00:00 (00:00)Gabor FarkasGabor Farkas
24 夢幻四驅車 May 30, 2024 $3.99N/A (N/A)0 .. 20,0000%00:00 (00:00)T-Time Technology CO., LTD.T-Time Technology CO., LTD.
25 Kubikon 3D May 23, 2024 $9.99N/A (N/A)0 .. 20,0000%00:00 (00:00)KUBI GamesKUBI Games
26 Kiki Apr 8, 2024 $2.99N/A (N/A)0 .. 20,0000%00:00 (00:00)NipoBoxNipoBox Publishing
27 你很聪明吗? Mar 21, 2024 $1.99N/A (N/A)0 .. 20,0000%00:00 (00:00)orsuieorsuie
28 9-Bit Armies: A Bit Too Far Feb 23, 2024 $19.99N/A (N/A)0 .. 20,0000%00:00 (00:00)PetroglyphPetroglyph
29 The Return of the King Jan 26, 2024 $29.99N/A (N/A)0 .. 20,0000%00:00 (00:00)The Return of the KingThe Return of the King
30 CubeCubeRubik Jan 25, 2024 $3.99N/A (N/A)0 .. 20,0000%00:00 (00:00)iceblue Studioiceblue Studio
31 Merry XMerge Dec 25, 2023 $0.99N/A (N/A)0 .. 20,0000%00:00 (00:00)PiHoEntertainmentYin Games
32 Ninja Dec 8, 2023 $10.99N/A (N/A)0 .. 20,0000%00:00 (00:00)YaremchukYaremchuk
33 唐朝建筑 Nov 18, 2023 $14.99N/A (N/A)0 .. 20,0000%00:00 (00:00)Nanchang Pubugui Online Game Co., LtdNanchang Pubugui Online Game Co., Ltd
34 Jelly Express Oct 1, 2023 $6.99N/A (N/A)0 .. 20,0000%00:00 (00:00)xxgamestudioPlayworks
35 RoboDunk Sep 25, 2023 $14.99N/A (N/A)0 .. 20,0000%00:00 (00:00)Jollypunch GamesJollypunch Games
36 ABRISS - build to destroy Sep 5, 2023 $14.99N/A (N/A)20,000 .. 50,0000%00:00 (00:00)Randwerkastragon Entertainment
37 Brick Rigs Jul 14, 2023 $18.99N/A (N/A)1,000,000 .. 2,000,0009.3%08:07 (10:49)FluppisoftFluppisoft
38 Alice's Burger Shop Jun 26, 2023 $13.99N/A (N/A)0 .. 20,0000%00:00 (00:00)MYJIKA INC.MYJIKA INC.
39 Mars First Logistics Jun 21, 2023 $19.99N/A (N/A)100,000 .. 200,0000%00:00 (00:00)Shape ShopShape Shop, Outersloth
40 Pandamander's Projector Platformer Jun 13, 2023 $2.99N/A (N/A)0 .. 20,0000%00:00 (00:00)Pandamander LLCPandamander LLC
41 LEGO 2K Drive May 18, 2023 $29.99N/A (N/A)50,000 .. 100,00012%06:30 (06:30)Visual Concepts2K
42 BQM - BlockQuest Maker Remastered Apr 14, 2023 $24.99N/A (N/A)0 .. 20,0000%00:00 (00:00)Wonderland Kazakiri inc.Wonderland Kazakiri inc.
43 Jamie's Toy Box Apr 10, 2023 FreeN/A (N/A)20,000 .. 50,0000%00:00 (00:00)PackDevPackDev
44 Dungeon Legend Apr 1, 2023 $29.99N/A (N/A)0 .. 20,0000%00:00 (00:00)Louis Winfield Game StudiosLouis Winfield Game Studios
45 An Architect's Adventure Mar 25, 2023 $9.99N/A (N/A)0 .. 20,0000%00:00 (00:00)maoumaou
46 Chippy & Noppo Mar 8, 2023 $19.99N/A (N/A)0 .. 20,0000%00:00 (00:00)peakvox, O-TWO inc.O-TWO inc.
47 Crazy Designer Mar 1, 2023 $7.99N/A (N/A)0 .. 20,0000%00:00 (00:00)T-Time Technology CO., LTD.T-Time Technology CO., LTD.
48 Simulators2023 Dec 11, 2022 $1.99N/A (N/A)0 .. 20,0000%00:00 (00:00)DeeberDeeber
49 Plank Road Dec 8, 2022 $1.99N/A (N/A)0 .. 20,0000%00:00 (00:00)Tai YiAged Immortals
50 LEGO Brawls Sep 2, 2022 $9.99N/A (N/A)0 .. 20,00050%00:03 (00:03)Red Games Co.LEGO® Games
51 Island Cities - Jigsaw Puzzle Aug 30, 2022 $1.39N/A (N/A)0 .. 20,0000%00:00 (00:00)Mens Sana InteractiveMens Sana Interactive
52 Picture Builder Aug 24, 2022 $7.99N/A (N/A)0 .. 20,0000%00:00 (00:00)VirtexUniverseVirtexUniverse
53 Build Lands Aug 4, 2022 $3.99N/A (N/A)0 .. 20,0000%00:00 (00:00)Yaw StudiosYaw Studios
54 Mini Maker: Make A Thing Jun 28, 2022 $9.99N/A (N/A)0 .. 20,0000%00:00 (00:00)Casa RaraCasa Rara
55 Pentomino May 31, 2022 $3.99N/A (N/A)0 .. 20,0000%00:00 (00:00)zeroSpacezeroSpace
56 剑冢 Swords Tomb May 5, 2022 $4.99N/A (N/A)0 .. 20,0000%00:00 (00:00)游戏事业接班人没有发行
57 Yin Yang Space Apr 22, 2022 $1.99N/A (N/A)0 .. 20,0000%00:00 (00:00)PanGuoJunPanGuoJun
58 World of Contraptions Mar 24, 2022 $9.99N/A (N/A)0 .. 20,0000%00:00 (00:00)JCP Games StudioJCP Games Studio
59 Let's Go! Mar 23, 2022 $4.99N/A (N/A)0 .. 20,0000%00:00 (00:00)Redsquirrel Tribute GamesRedsquirrel Tribute Games
60 Pow! 2 Mar 7, 2022 $0.99N/A (N/A)0 .. 20,0000%00:00 (00:00)The 25th StudioThe 25th Studio
61 Art of Destruction Feb 14, 2022 $0.99N/A (N/A)0 .. 20,0000%00:00 (00:00)ZHANG FANZHANG FAN
62 Creator's Asteroid Dec 21, 2021 $4.99N/A (N/A)0 .. 20,0000%00:00 (00:00)decigrahamdecigraham
63 Bricky to Me Nov 4, 2021 $3.99N/A (N/A)0 .. 20,0000%00:00 (00:00)IdunaSoftIdunaSoft
64 ABC Flappy Nov 1, 2021 $1.99N/A (N/A)0 .. 20,0000%00:00 (00:00)ddGamesddGames
65 Pow! Sep 24, 2021 $0.99N/A (N/A)0 .. 20,0000%00:00 (00:00)The 25th StudioThe 25th Studio
66 Return home Sep 15, 2021 $5.99N/A (N/A)0 .. 20,0000%00:00 (00:00)苒紫网络苒紫网络
67 Puzzle Light: Connect Sep 10, 2021 $0.99N/A (N/A)0 .. 20,0000%00:00 (00:00)Waidy AndradeCronostase
68 {Undefined} Aug 20, 2021 $24.99N/A (N/A)0 .. 20,0000%00:00 (00:00)FreshMountainStudiosFreshMountainStudios
69 战斗俄罗斯方块 Jul 27, 2021 $4.99N/A (N/A)0 .. 20,0000%00:00 (00:00)lanqing gamelanqing game
70 Home Creator Jul 9, 2021 $0.99N/A (N/A)0 .. 20,0000%00:00 (00:00)Boom TeamBoom Team
71 The Awakening of Mummies May 13, 2021 $1.99N/A (N/A)0 .. 20,0000%00:00 (00:00)Virtual Arts StudioVirtual Arts Studio
72 Military Base War Apr 29, 2021 $4.99N/A (N/A)0 .. 20,0000%00:00 (00:00)Sarhan SoftSarhan Soft
73 FortressCraft : Chapter 1 Apr 16, 2021 $9.99N/A (N/A)0 .. 20,0000%00:00 (00:00)ProjectorGamesProjectorGames
74 HUNDUN Mar 27, 2021 $1.49N/A (N/A)0 .. 20,0000%00:00 (00:00)MaYong mymMaYong
75 Ladder Box Apr 6, 2021 $2.99N/A (N/A)0 .. 20,0000%00:00 (00:00)fengjiongmaxfengjoingmax
76 Cargo Transportation: Low Poly Jan 13, 2021 $2.99N/A (N/A)0 .. 20,0000%00:00 (00:00)Laush Dmitriy SergeevichLaush Studio
77 Color Cube Dec 26, 2020 $0.59N/A (N/A)20,000 .. 50,0000%00:00 (00:00)NanningsGamesNanningsGames
78 Table Soccer Club Dec 22, 2020 $0.99N/A (N/A)0 .. 20,0000%00:00 (00:00)J.LiLimeade Games
79 Zup! Z Dec 21, 2020 $1.99N/A (N/A)200,000 .. 500,0000%00:00 (00:00)Quiet RiverQuiet River
80 Ellie's Travel Diary Dec 7, 2020 $8.99N/A (N/A)0 .. 20,0000%00:00 (00:00)Newmatic Co., Ltd.Newmatic Co., Ltd.
81 SMIB: Mission Cure Nov 19, 2020 $1.99N/A (N/A)50,000 .. 100,0000%00:00 (00:00)Virtual Arts StudioVirtual Arts Studio
82 Mason: Building Bricks Nov 9, 2020 $5.99N/A (N/A)0 .. 20,0000%00:00 (00:00)TelegmaticTelegmatic
83 Messy Room Simulator Sep 21, 2020 $4.99N/A (N/A)0 .. 20,0000%00:00 (00:00)Kether StudioKether Studio
84 Head Bumper: Editcraft Sep 19, 2020 $0.99N/A (N/A)20,000 .. 50,0000%00:00 (00:00)Polish HackerPolish Hacker
85 Sunset Shapes Sep 8, 2020 $2.99N/A (N/A)0 .. 20,0000%00:00 (00:00)ByVal GamesByVal Games
86 LouveSystems' TrackMasters Sep 4, 2020 $11.99N/A (N/A)0 .. 20,0000%00:00 (00:00)LouveSystems, RackoverLouveSystems
87 Px Art Aug 13, 2020 $0.99N/A (N/A)0 .. 20,0000%00:00 (00:00)Xiangsu TangXiangsu Tang
88 Boxfight Nov 2, 2020 $5.99N/A (N/A)0 .. 20,0000%00:00 (00:00)InncopInncop
89 3D Math - Ultra May 15, 2020 $4.99N/A (N/A)0 .. 20,0000%00:00 (00:00)Big Mind Games 9000Big Mind Games 9000
90 Box Nation [] Lets Go Build and Fight Apr 6, 2020 $9.99N/A (N/A)0 .. 20,0000%00:00 (00:00)HedeHede
91 Colorful 3D II Mar 6, 2020 $4.99N/A (N/A)0 .. 20,0000%00:00 (00:00)SuntmSuntm
92 Shadowforge Feb 26, 2020 N/AN/A (N/A)0 .. 20,0000%00:00 (00:00)MibliMibli
93 Besiege Feb 18, 2020 $14.99N/A (N/A)1,000,000 .. 2,000,0000.64%00:08 (00:05)Spiderling StudiosSpiderling Studios
94 Factory Coin Mining Apr 15, 2019 $19.99N/A (N/A)0 .. 20,0000%00:00 (00:00)Thetis GamesThetis Games
95 The LEGO Movie 2 Videogame Feb 26, 2019 $29.99N/A (N/A)100,000 .. 200,0000%00:00 (00:00)TT Games, Feral interactive (Mac)Warner Bros. Interactive Entertainment, Feral interactive (Mac)
96 Islet Online Feb 12, 2019 FreeN/A (N/A)50,000 .. 100,0000%00:00 (00:00)Morenori SoftMorenori Soft
97 LEGO The Incredibles Jun 15, 2018 $39.99N/A (N/A)100,000 .. 200,0004.76%07:19 (02:26)TT Games, Feral Interactive (Mac)Warner Bros. Interactive Entertainment, Feral Interactive (Mac)
98 LEGO Marvel Super Heroes 2 Nov 14, 2017 $19.99N/A (N/A)500,000 .. 1,000,0000%00:00 (00:00)TT Games, Feral Interactive (Mac)Warner Bros. Interactive, Feral Interactive (Mac)
99 The LEGO NINJAGO Movie Video Game Sep 22, 2017 $19.99N/A (N/A)1,000,000 .. 2,000,0000.25%00:01 (00:00)Traveller's Tales, TT GamesWarner Bros. Interactive Entertainment
100 Zup! 6 Sep 19, 2017 $1.99N/A (N/A)100,000 .. 200,0004.17%00:01 (00:00)Quiet RiverQuiet River
101 Crash Test Billy Aug 18, 2017 $3.99N/A (N/A)0 .. 20,0000%00:00 (00:00)SP Digital Arts Inc.SP Digital Arts Inc.
102 LEGO Worlds Mar 7, 2017 $29.99N/A (N/A)500,000 .. 1,000,0000%00:00 (00:00)TT Games, Traveller's TalesWarner Bros. Interactive Entertainment
103 NightZ Feb 14, 2017 $0.99N/A (N/A)50,000 .. 100,0000%00:00 (00:00)Asset Flip StudioAsset Flip Studio
104 LEGO STAR WARS: The Force Awakens Jun 27, 2016 $19.99N/A (N/A)500,000 .. 1,000,0000%00:00 (00:00)Traveller's Tales, TT Games, Feral Interactive (Mac)Warner Bros. Interactive Entertainment, Feral Interactive (Mac)
105 ChaosTower Feb 23, 2016 $4.99N/A (N/A)0 .. 20,0000%00:00 (00:00)CashcowGamesCashcowGames
106 LEGO MARVEL's Avengers Jan 26, 2016 $19.99N/A (N/A)1,000,000 .. 2,000,0000%00:00 (00:00)Traveller's Tales, TT Games, Feral Interactive (Mac)Warner Bros. Interactive Entertainment, Feral Interactive (Mac)
107 LEGO Batman 3: Beyond Gotham Nov 11, 2014 $19.99N/A (N/A)500,000 .. 1,000,0000.86%00:44 (00:14)TT Games LtdWB Games
108 LEGO Pirates of the Caribbean: The Video Game May 24, 2011 $19.99N/A (N/A)200,000 .. 500,0003.57%00:55 (00:18)Traveller's TalesDisney
109 LEGO The Hobbit Apr 8, 2014 $19.99N/A (N/A)1,000,000 .. 2,000,0000%00:00 (00:00)Traveller's Tales, Feral Interactive (Mac)Warner Bros. Interactive Entertainment, Feral Interactive (Mac)
110 The LEGO Movie - Videogame Feb 7, 2014 $19.99N/A (N/A)200,000 .. 500,0000%00:00 (00:00)TT Fusion, Traveller's TalesWarner Bros. Interactive Entertainment
111 Blockland Feb 28, 2007 $9.99N/A (N/A)500,000 .. 1,000,0000%00:00 (00:00)Eric Hartman, Ben Garney, Anthony RotondoStep 1 Games LLC
Overview

LEGO

Games with this tag: 111
Average userscore: N/A%
Average metascore: 77.53%
Average playtime: 02:13
Total copies owned: 22,605,000
Average price: $12.02
Help

Owners: Estimated number of people owning this game. The number might be way too small for new releases and sometimes way too big for games that had free weekend event recently. Read more on About page.

Playtime: Average hours played in total per person that have actually launched this game since March 2009. This time is calculated for the whole lifetime, not for the particular year.

Average score: Average users and metacritic score for all games with this score assigned.

Average playtime: Average lifetime playtime for all games where this data is available.

Games in this genre: Self-explaining - number of games with this tag. Only inculdes games with sales data available.

Total copies owned: Refers to total copies of games with this tag acquired by users for the lifetime. Includes copies sold, downloaded for free and given out.

This number might be too small for recently released games or too big for games that had a free weekend in the last couple of months.

Graphs

Login required.

Please register or log in to see this information.

Login required.

Please register or log in to see this information.